This is the latest recevied weather packets stored in our database for station/object F4DVI. If no packets are shown the sender has not sent any weather packets the latest 10 day(s).
| Time | Temp. | Humidity | Pressure | Rain* | Wind** | Luminosity | Snow |
|---|---|---|---|---|---|---|---|
| 1778162909 | 25.56° C | 37% | 0 hPa | 0 mm | - | - | - |
| 1778162608 | 23.89° C | 40% | 0 hPa | 0 mm | - | - | - |
| 1778162308 | 22.78° C | 40% | 0 hPa | 0 mm | - | - | - |
| 1778162008 | 22.22° C | 39% | 0 hPa | 0 mm | - | - | - |
| 1778161708 | 22.22° C | 39% | 0 hPa | 0 mm | - | - | - |
| 1778161408 | 21.67° C | 37% | 0 hPa | 0 mm | - | - | - |
| 1778161109 | 22.78° C | 36% | 0 hPa | 0 mm | - | - | - |
| 1778160808 | 23.33° C | 34% | 0 hPa | 0 mm | - | - | - |
| 1778160509 | 24.44° C | 32% | 0 hPa | 0 mm | - | - | - |
| 1778160208 | 26.67° C | 30% | 0 hPa | 0 mm | - | - | - |
| 1778159909 | 27.78° C | 30% | 0 hPa | 0 mm | - | - | - |
| 1778159609 | 27.78° C | 34% | 0 hPa | 0 mm | - | - | - |
| 1778159308 | 26.67° C | 34% | 0 hPa | 0 mm | - | - | - |
| 1778159009 | 25° C | 36% | 0 hPa | 0 mm | - | - | - |
| 1778158709 | 25.56° C | 33% | 0 hPa | 0 mm | - | - | - |
| 1778158463 | 26.67° C | 29% | 0 hPa | 0 mm | - | - | - |
| 1778158409 | 26.67° C | 29% | 0 hPa | 0 mm | - | - | - |
| 1778158109 | 27.78° C | 30% | 0 hPa | 0 mm | - | - | - |
| 1778157906 | 28.33° C | 31% | 0 hPa | 0 mm | - | - | - |
| 1778157809 | 28.33° C | 31% | 0 hPa | 0 mm | - | - | - |
| 1778157509 | 27.78° C | 30% | 0 hPa | 0 mm | - | - | - |
| 1778157208 | 27.78° C | 31% | 0 hPa | 0 mm | - | - | - |
| 1778156909 | 28.89° C | 30% | 0 hPa | 0 mm | - | - | - |
| 1778156609 | 27.78° C | 33% | 0 hPa | 0 mm | - | - | - |
| 1778156309 | 27.22° C | 32% | 0 hPa | 0 mm | - | - | - |
* Rain latest hour (hover to see other rain measurements)
** Current wind speed in m/s (hover to see current wind gust speed)